Meteo Giornale » Osservazioni meteo Stati Uniti (USA) » Klamath Falls
ore: 17:53 - Osservazioni Meteo Klamath Falls
Lat. 42° 8' N Lon. 121° 43' W Alt. 1247 metri s.l.m.
26 °C
Sereno
Temp. 24 Ore
3 °C
28 °C
Sud
29.6 Km/h
Dew point -2 °C
Umidità 15 %
Visibilità 10 Km
Il sole sorge alle ore 06:31
Il sole tramonta alle ore 19:42
| Data e Ora | Cielo e Fenomeni | T °C | DP °C | Um. % | Pres. hPa | Vis. km | Vento km/h | |
|---|---|---|---|---|---|---|---|---|
| Oggi h: 17:53 | Sereno | 26 | -2 | 15 | 1011 | 10 | S 29.6 | |
| Oggi h: 16:53 | Sereno | 28 | -2 | 13 | 1011 | 10 | S 27.8 | |
| Oggi h: 15:53 | Sereno | 28 | -2 | 13 | 1012 | 10 | S 24 | |
| Oggi h: 14:53 | Sereno | 28 | -3 | 12 | 1012 | 10 | S 22.2 | |
| Oggi h: 13:53 | Sereno | 27 | -1 | 15 | 1013 | 10 | S/SO 13 | |
| Oggi h: 12:53 | Sereno | 26 | 1 | 19 | 1014 | 10 | S/SE 13 | |
| Oggi h: 11:53 | Sereno | 24 | 2 | 23 | 1015 | 10 | S/SE 13 | |
| Oggi h: 10:53 | Sereno | 21 | 2 | 28 | 1015 | 10 | S/SO 7.4 | |
| Oggi h: 09:53 | Sereno | 17 | 2 | 36 | 1015 | 10 | N 0 | |
| Oggi h: 08:53 | Sereno | 14 | 2 | 44 | 1016 | 10 | N 0 | |
| Oggi h: 07:53 | Sereno | 9 | 2 | 61 | 1016 | 10 | N 0 | |
| Oggi h: 06:53 | Sereno | 3 | -1 | 74 | 1015 | 10 | N 0 | |
| Oggi h: 05:53 | Sereno | 5 | 1 | 75 | 1015 | 10 | N 0 | |
| Oggi h: 04:53 | Sereno | 5 | 1 | 75 | 1015 | 10 | N 0 | |
| Oggi h: 03:53 | Sereno | 6 | 2 | 75 | 1015 | 10 | N 0 | |
| Oggi h: 02:53 | Sereno | 6 | 2 | 75 | 1015 | 10 | N 0 | |
| Oggi h: 01:53 | Sereno | 7 | 3 | 75 | 1015 | 10 | N 5.5 | |
| Oggi h: 00:53 | Sereno | 7 | 1 | 65 | 1016 | 10 | N 5.5 | |
| Ieri h: 23:53 | Sereno | 9 | 1 | 57 | 1016 | 10 | N 0 | |
| Ieri h: 22:53 | Sereno | 11 | 2 | 53 | 1016 | 10 | N 0 | |
| Ieri h: 21:53 | Sereno | 13 | 2 | 47 | 1016 | 10 | N 0 | |
| Ieri h: 20:53 | Sereno | 17 | 3 | 39 | 1016 | 10 | N 5.5 | |
| Ieri h: 19:53 | Sereno | 21 | 1 | 26 | 1015 | 10 | N 5.5 | |
| Ieri h: 18:53 | Sereno | 24 | -1 | 19 | 1015 | 10 | N 0 | |



